Time;durP1;ratioP1;P1;durP2;ratioP2;P2;SDS_P1;SDS_P2;PMS_P1;PMS_P2;Temp;Humidity;BMP_temperature;BMP_pressure;BME280_temperature;BME280_humidity;BME280_pressure;Samples;Min_cycle;Max_cycle;Signal;HPM_P1;HPM_P2
2023/09/08 00:00:30;;;;;;;151.40;144.75;;;;;;;28.97;43.16;101560.03;5035185;28;20472;-72
2023/09/08 00:02:55;;;;;;;147.98;141.57;;;;;;;28.95;43.09;101558.78;5048620;28;20044;-72
2023/09/08 00:05:21;;;;;;;156.18;149.38;;;;;;;28.92;43.16;101560.28;5032984;28;20029;-72
2023/09/08 00:07:46;;;;;;;147.65;141.20;;;;;;;28.88;43.22;101562.97;5034138;28;20041;-72
2023/09/08 00:10:12;;;;;;;150.52;144.02;;;;;;;28.85;43.47;101562.81;5033030;28;20057;-73
2023/09/08 00:12:37;;;;;;;154.63;147.95;;;;;;;28.83;43.32;101565.97;5051346;28;20028;-72
2023/09/08 00:15:03;;;;;;;147.07;140.60;;;;;;;28.81;43.15;101573.03;5047519;28;20038;-72
2023/09/08 00:17:29;;;;;;;152.52;145.88;;;;;;;28.78;43.10;101568.97;5038026;28;20044;-72
2023/09/08 00:19:57;;;;;;;148.18;141.70;;;;;;;28.76;43.10;101573.28;5051875;28;20102;-72
2023/09/08 00:22:23;;;;;;;154.07;147.27;;;;;;;28.74;43.18;101581.16;5040640;28;20363;-72
2023/09/08 00:24:48;;;;;;;149.52;142.90;;;;;;;28.71;43.23;101573.50;5051908;28;20040;-73
2023/09/08 00:27:14;;;;;;;147.43;140.90;;;;;;;28.67;43.12;101579.72;5040636;28;20120;-72
2023/09/08 00:29:39;;;;;;;150.45;143.95;;;;;;;28.65;43.21;101570.94;5035799;28;20451;-72
2023/09/08 00:32:05;;;;;;;155.00;148.10;;;;;;;28.64;43.14;101579.63;5039373;28;20040;-72
2023/09/08 00:34:30;;;;;;;152.02;145.40;;;;;;;28.61;43.06;101570.00;5044325;28;20445;-72
2023/09/08 00:36:56;;;;;;;148.18;141.77;;;;;;;28.59;43.14;101565.94;5034265;28;20068;-72
2023/09/08 00:39:21;;;;;;;152.23;145.60;;;;;;;28.57;42.98;101565.47;5031195;28;20033;-72
2023/09/08 00:41:47;;;;;;;143.60;137.32;;;;;;;28.54;43.13;101575.31;5034671;28;20575;-72
2023/09/08 00:44:12;;;;;;;150.32;143.80;;;;;;;28.52;43.04;101568.47;5049154;28;20089;-73
2023/09/08 00:46:39;;;;;;;147.82;141.32;;;;;;;28.51;43.16;101569.66;5035368;28;20086;-72
2023/09/08 00:49:05;;;;;;;148.05;141.70;;;;;;;28.48;43.12;101571.16;5052252;28;20029;-72
2023/09/08 00:51:31;;;;;;;151.25;144.65;;;;;;;28.46;43.07;101565.13;5033655;28;20041;-72
2023/09/08 00:53:56;;;;;;;147.30;140.60;;;;;;;28.43;43.26;101572.16;5049133;28;20041;-72
2023/09/08 00:56:23;;;;;;;146.35;139.77;;;;;;;28.42;43.19;101573.28;5039441;28;20516;-72
2023/09/08 00:58:49;;;;;;;143.48;137.18;;;;;;;28.40;42.94;101567.28;5043896;28;20044;-72
2023/09/08 01:01:17;;;;;;;148.20;141.80;;;;;;;28.39;43.16;101568.44;5043129;28;20053;-72
2023/09/08 01:03:43;;;;;;;143.05;136.55;;;;;;;28.36;43.01;101569.13;5037845;28;20040;-73
2023/09/08 01:06:09;;;;;;;147.80;141.27;;;;;;;28.34;43.05;101570.63;5037555;28;20049;-73
2023/09/08 01:08:35;;;;;;;143.80;137.45;;;;;;;28.32;43.21;101570.16;5041693;28;20029;-72
2023/09/08 01:11:02;;;;;;;151.95;145.15;;;;;;;28.29;43.03;101568.88;5072738;28;20040;-72
2023/09/08 01:13:27;;;;;;;142.75;136.45;;;;;;;28.28;43.08;101570.03;5045243;28;22100;-72
2023/09/08 01:15:52;;;;;;;144.10;137.65;;;;;;;28.26;43.09;101562.03;5045352;28;20488;-72
2023/09/08 01:18:18;;;;;;;143.57;137.10;;;;;;;28.23;43.04;101568.28;5032695;28;20036;-72
2023/09/08 01:21:10;;;;;;;147.07;140.63;;;;;;;28.20;43.26;101563.41;5031617;28;20470;-72
2023/09/08 01:24:30;;;;;;;146.77;140.30;;;;;;;28.13;43.17;101565.94;5034253;28;20032;-72
2023/09/08 01:26:56;;;;;;;140.50;134.15;;;;;;;28.14;43.20;101566.75;4993242;28;20590;-72
2023/09/08 01:29:25;;;;;;;137.10;131.07;;;;;;;28.12;43.08;101575.41;5035191;28;20037;-73
2023/09/08 01:31:51;;;;;;;138.00;131.98;;;;;;;28.11;43.12;101575.78;5043440;28;20064;-73
2023/09/08 01:34:18;;;;;;;141.00;134.60;;;;;;;28.09;43.11;101572.50;5032022;28;20486;-73
2023/09/08 01:36:45;;;;;;;142.82;136.45;;;;;;;28.08;42.96;101568.13;5040683;28;20033;-73
2023/09/08 01:39:11;;;;;;;140.52;134.43;;;;;;;28.07;42.91;101563.72;5049389;28;20033;-73
2023/09/08 01:41:36;;;;;;;138.27;131.90;;;;;;;28.04;42.91;101568.78;5043234;28;20033;-73
2023/09/08 01:44:07;;;;;;;136.05;129.82;;;;;;;28.03;43.27;101555.25;5050900;28;20124;-73
2023/09/08 01:46:33;;;;;;;146.05;139.57;;;;;;;28.01;43.02;101563.13;5044889;28;20025;-73
2023/09/08 01:48:59;;;;;;;139.10;132.88;;;;;;;27.98;42.83;101564.63;5043057;28;20040;-73
2023/09/08 01:51:24;;;;;;;138.70;132.55;;;;;;;27.97;43.02;101564.94;5015863;28;20347;-73
2023/09/08 01:53:49;;;;;;;136.10;130.00;;;;;;;27.95;43.05;101558.94;5033048;28;20037;-73
2023/09/08 01:56:15;;;;;;;137.15;130.95;;;;;;;27.92;43.27;101560.44;5051334;28;20064;-73
2023/09/08 01:58:40;;;;;;;138.63;132.50;;;;;;;27.90;43.28;101557.19;5045953;28;20421;-73
2023/09/08 02:01:06;;;;;;;137.30;131.07;;;;;;;27.88;43.20;101555.91;5035455;28;20060;-73
2023/09/08 02:03:34;;;;;;;139.35;133.05;;;;;;;27.86;43.31;101560.97;5040953;28;20037;-72
2023/09/08 02:06:00;;;;;;;137.50;131.20;;;;;;;27.84;42.83;101558.53;5031751;28;20087;-72
2023/09/08 02:08:25;;;;;;;134.77;128.82;;;;;;;27.82;43.05;101560.84;5044326;28;20474;-73
2023/09/08 02:10:51;;;;;;;140.70;134.50;;;;;;;27.79;43.26;101561.50;5040837;28;20040;-72
2023/09/08 02:13:16;;;;;;;140.52;134.32;;;;;;;27.76;43.17;101562.19;5046776;28;20428;-72
2023/09/08 02:15:41;;;;;;;139.60;133.45;;;;;;;27.74;43.23;101556.94;5032990;28;20111;-73
2023/09/08 02:18:07;;;;;;;138.52;132.43;;;;;;;27.71;42.99;101554.06;5055109;28;20538;-73
2023/09/08 02:20:33;;;;;;;136.88;130.80;;;;;;;27.68;43.18;101555.53;5032112;28;20038;-73
2023/09/08 02:23:04;;;;;;;139.70;133.52;;;;;;;27.65;43.34;101550.69;5040886;28;20056;-73
2023/09/08 02:25:30;;;;;;;144.30;137.98;;;;;;;27.63;43.23;101551.00;5031012;28;20026;-73
2023/09/08 02:27:55;;;;;;;141.13;134.93;;;;;;;27.61;43.34;101546.94;5044531;28;20036;-73
2023/09/08 02:30:21;;;;;;;134.60;128.50;;;;;;;27.59;43.12;101554.78;5041594;28;20103;-73
2023/09/08 02:32:46;;;;;;;141.95;135.20;;;;;;;27.55;42.94;101551.91;5032763;28;20052;-73
2023/09/08 02:35:11;;;;;;;134.50;128.38;;;;;;;27.53;43.33;101553.38;5031452;28;20029;-73
2023/09/08 02:37:37;;;;;;;136.80;130.55;;;;;;;27.51;43.38;101550.13;5036244;28;20048;-73
2023/09/08 02:40:03;;;;;;;135.10;129.10;;;;;;;27.49;43.57;101552.44;5039176;28;20504;-73
2023/09/08 02:42:29;;;;;;;137.55;131.35;;;;;;;27.47;43.18;101549.19;5039841;28;20044;-73
2023/09/08 02:44:54;;;;;;;140.65;134.50;;;;;;;27.45;43.09;101557.84;5044515;28;20037;-73
2023/09/08 02:47:20;;;;;;;131.10;125.25;;;;;;;27.42;43.37;101558.53;5043548;28;20139;-73
2023/09/08 02:49:45;;;;;;;139.00;132.90;;;;;;;27.39;43.28;101548.94;5049055;28;20029;-73
2023/09/08 02:52:10;;;;;;;134.10;128.10;;;;;;;27.37;43.33;101553.19;5051178;28;20037;-73
2023/09/08 02:54:36;;;;;;;138.48;132.35;;;;;;;27.35;43.18;101552.72;5033544;28;20037;-73
2023/09/08 02:57:01;;;;;;;135.05;128.95;;;;;;;27.32;43.43;101547.84;5039632;28;20110;-73
2023/09/08 02:59:27;;;;;;;137.77;131.57;;;;;;;27.29;43.50;101554.03;5035130;28;20038;-73
2023/09/08 03:01:52;;;;;;;136.13;130.02;;;;;;;27.26;43.41;101551.94;5048231;28;20060;-72
2023/09/08 03:04:17;;;;;;;133.52;127.57;;;;;;;27.25;43.22;101547.56;5034779;28;20541;-73
2023/09/08 03:06:43;;;;;;;132.30;126.18;;;;;;;27.23;43.62;101549.84;5037685;28;20033;-73
2023/09/08 03:09:08;;;;;;;134.27;128.27;;;;;;;27.21;43.56;101552.16;5043703;28;20053;-73
2023/09/08 03:11:33;;;;;;;131.63;125.72;;;;;;;27.19;43.33;101549.72;5036245;28;20099;-73
2023/09/08 03:13:59;;;;;;;137.75;131.57;;;;;;;27.17;43.54;101547.25;5050974;28;20044;-72
2023/09/08 03:16:24;;;;;;;135.27;129.27;;;;;;;27.15;43.26;101543.19;5038750;28;20037;-73
2023/09/08 03:18:50;;;;;;;133.82;127.90;;;;;;;27.12;43.33;101541.91;5037869;28;20048;-73
2023/09/08 03:21:15;;;;;;;134.63;128.68;;;;;;;27.10;43.26;101546.16;5033829;28;20033;-73
2023/09/08 03:23:43;;;;;;;132.95;127.00;;;;;;;27.09;43.37;101544.50;5043909;28;20033;-73
2023/09/08 03:26:10;;;;;;;128.60;122.88;;;;;;;27.05;43.43;101544.38;5039710;28;20473;-73
2023/09/08 03:28:36;;;;;;;133.02;127.05;;;;;;;27.03;43.21;101549.44;5055952;28;20104;-73
2023/09/08 03:31:03;;;;;;;131.27;125.38;;;;;;;27.01;43.66;101542.63;5034299;28;20465;-73
2023/09/08 03:33:28;;;;;;;126.93;120.93;;;;;;;27.00;43.39;101541.81;5036463;28;20037;-73
2023/09/08 03:35:55;;;;;;;132.07;126.18;;;;;;;26.95;43.38;101540.03;5033391;28;20049;-73
2023/09/08 03:38:20;;;;;;;129.80;123.93;;;;;;;26.95;43.33;101536.47;5051234;28;20476;-73
2023/09/08 03:40:46;;;;;;;129.52;123.72;;;;;;;26.91;43.41;101530.78;5049915;28;20056;-73
2023/09/08 03:43:11;;;;;;;130.10;124.22;;;;;;;26.89;43.50;101530.31;5048281;28;20200;-72
2023/09/08 03:45:37;;;;;;;128.13;122.22;;;;;;;26.88;43.41;101527.84;5049967;28;20039;-73
2023/09/08 03:48:02;;;;;;;132.25;126.35;;;;;;;26.86;43.72;101524.59;5039244;28;20046;-73
2023/09/08 03:50:28;;;;;;;130.27;124.55;;;;;;;26.83;43.55;101520.53;5043760;28;20363;-73
2023/09/08 03:52:53;;;;;;;137.57;131.48;;;;;;;26.82;43.73;101526.44;5046395;28;20037;-73
2023/09/08 03:55:19;;;;;;;131.32;125.43;;;;;;;26.79;43.63;101525.13;5033134;28;20033;-73
2023/09/08 03:57:45;;;;;;;131.32;125.40;;;;;;;26.76;43.39;101523.00;5035694;28;20037;-72
2023/09/08 04:00:11;;;;;;;128.90;122.88;;;;;;;26.75;43.44;101527.75;5044852;28;20431;-73
2023/09/08 04:02:36;;;;;;;126.82;121.10;;;;;;;26.72;43.48;101524.84;5049159;28;20149;-73
2023/09/08 04:05:02;;;;;;;127.05;121.22;;;;;;;26.70;43.54;101519.63;5038819;28;20380;-73
2023/09/08 04:07:27;;;;;;;125.68;120.00;;;;;;;26.70;43.85;101529.91;5052324;28;20043;-73
2023/09/08 04:09:53;;;;;;;126.63;121.00;;;;;;;26.66;43.65;101524.22;5040202;28;20556;-73
2023/09/08 04:12:18;;;;;;;130.48;124.75;;;;;;;26.66;43.74;101529.75;5060829;28;20033;-73
2023/09/08 04:14:43;;;;;;;130.02;123.55;;;;;;;26.63;43.43;101526.84;5047200;28;20060;-73
2023/09/08 04:17:09;;;;;;;128.25;122.45;;;;;;;26.61;43.42;101524.41;5036537;28;20033;-74
2023/09/08 04:19:34;;;;;;;127.72;121.95;;;;;;;26.59;43.72;101529.47;5042160;28;20041;-73
2023/09/08 04:21:59;;;;;;;126.65;120.90;;;;;;;26.57;43.72;101522.63;5056782;28;20047;-73
2023/09/08 04:24:25;;;;;;;132.52;126.55;;;;;;;26.55;43.46;101525.72;5052850;28;20029;-72
2023/09/08 04:26:51;;;;;;;128.18;122.05;;;;;;;26.53;43.71;101522.47;5050261;28;20052;-73
2023/09/08 04:29:16;;;;;;;126.35;120.45;;;;;;;26.50;43.69;101523.09;5046936;28;20032;-73
2023/09/08 04:31:41;;;;;;;126.55;120.85;;;;;;;26.49;43.65;101521.50;5040019;28;20402;-72
2023/09/08 04:34:07;;;;;;;126.05;120.13;;;;;;;26.46;43.89;101517.44;5044553;28;20037;-72
2023/09/08 04:36:32;;;;;;;126.60;120.88;;;;;;;26.45;43.56;101526.06;5038907;28;20504;-72
2023/09/08 04:38:58;;;;;;;126.55;120.75;;;;;;;26.43;43.58;101517.25;5032727;28;20475;-72
2023/09/08 04:41:23;;;;;;;124.57;118.80;;;;;;;26.39;43.87;101522.66;5040737;28;20032;-73
2023/09/08 04:43:48;;;;;;;127.80;121.93;;;;;;;26.38;43.57;101511.91;5045397;28;20051;-73
2023/09/08 04:46:14;;;;;;;122.35;116.85;;;;;;;26.36;43.56;101516.97;5037243;28;20162;-73
2023/09/08 04:48:39;;;;;;;129.63;123.75;;;;;;;26.33;43.53;101519.28;5041711;28;20056;-73
2023/09/08 04:51:04;;;;;;;125.65;119.93;;;;;;;26.31;44.15;101517.97;5032750;28;20192;-73
2023/09/08 04:53:30;;;;;;;124.15;118.55;;;;;;;26.30;43.89;101525.44;5043748;28;20214;-73
2023/09/08 04:55:55;;;;;;;125.10;119.40;;;;;;;26.29;43.71;101531.34;5032244;28;20489;-72
2023/09/08 04:58:21;;;;;;;129.07;123.20;;;;;;;26.26;43.77;101527.28;5040979;28;20470;-72
2023/09/08 05:00:46;;;;;;;129.32;123.47;;;;;;;26.25;43.78;101527.59;5031577;28;20058;-72
2023/09/08 05:03:12;;;;;;;127.40;121.60;;;;;;;26.21;43.80;101527.44;5042984;28;20095;-73
2023/09/08 05:05:38;;;;;;;124.82;119.10;;;;;;;26.19;43.80;101534.47;5050409;28;20033;-72
2023/09/08 05:08:04;;;;;;;124.13;118.47;;;;;;;26.16;43.86;101530.41;5036418;28;20041;-72
2023/09/08 05:10:29;;;;;;;125.78;119.97;;;;;;;26.16;43.65;101529.56;5032455;28;20040;-72
2023/09/08 05:12:54;;;;;;;127.72;121.63;;;;;;;26.12;43.90;101533.00;5043971;28;20033;-72
2023/09/08 05:15:21;;;;;;;125.05;119.35;;;;;;;26.13;43.81;101531.03;5036597;28;20033;-72
2023/09/08 05:17:47;;;;;;;124.97;119.25;;;;;;;26.10;44.01;101529.72;5037624;28;20045;-72
2023/09/08 05:20:12;;;;;;;128.40;122.50;;;;;;;26.08;43.79;101539.50;5036035;28;20121;-73
2023/09/08 05:22:37;;;;;;;123.68;117.97;;;;;;;26.06;43.86;101539.88;5047141;28;20112;-73
2023/09/08 05:25:04;;;;;;;124.55;118.80;;;;;;;26.04;43.89;101533.84;5048464;28;20064;-73
2023/09/08 05:27:29;;;;;;;121.30;115.70;;;;;;;26.02;44.00;101532.53;5036023;28;20030;-73
2023/09/08 05:29:55;;;;;;;124.00;118.30;;;;;;;26.01;43.65;101534.50;5031469;28;20036;-72
2023/09/08 05:32:20;;;;;;;123.78;118.20;;;;;;;25.99;43.80;101542.31;5045630;28;20037;-73
2023/09/08 05:34:45;;;;;;;127.72;122.00;;;;;;;25.99;44.09;101535.97;5047234;28;20120;-73
2023/09/08 05:37:11;;;;;;;123.07;117.38;;;;;;;25.97;43.78;101541.81;5038510;28;20489;-73
2023/09/08 05:39:36;;;;;;;123.05;117.40;;;;;;;25.97;43.96;101541.00;5044328;28;20041;-72
2023/09/08 05:42:02;;;;;;;122.15;116.55;;;;;;;25.96;43.57;101542.16;5037363;28;20033;-72
2023/09/08 05:44:27;;;;;;;121.50;116.00;;;;;;;25.92;43.76;101544.75;5050059;28;20068;-72
2023/09/08 05:46:52;;;;;;;124.35;118.63;;;;;;;25.91;43.87;101543.16;5042188;28;20523;-73
2023/09/08 05:49:18;;;;;;;121.15;115.55;;;;;;;25.90;43.60;101545.09;5032094;28;20030;-75
2023/09/08 05:51:44;;;;;;;120.88;115.18;;;;;;;25.88;43.70;101541.84;5035069;28;20452;-74
2023/09/08 05:54:10;;;;;;;120.55;114.95;;;;;;;25.87;43.75;101542.97;5045354;28;20077;-74
2023/09/08 05:56:37;;;;;;;120.40;114.90;;;;;;;25.86;43.92;101541.34;5068352;28;20095;-76
2023/09/08 05:59:02;;;;;;;121.47;115.88;;;;;;;25.85;43.80;101541.66;5031297;28;20049;-74
2023/09/08 06:01:29;;;;;;;120.65;114.88;;;;;;;25.84;43.59;101546.38;5032563;28;20690;-75
2023/09/08 06:03:54;;;;;;;122.70;116.93;;;;;;;25.83;43.50;101547.53;5047438;28;20100;-74
2023/09/08 06:06:21;;;;;;;120.78;115.22;;;;;;;25.80;43.65;101552.88;5064778;28;20059;-75
2023/09/08 06:08:46;;;;;;;122.18;116.57;;;;;;;25.79;43.88;101551.25;5032261;28;20034;-75
2023/09/08 06:11:12;;;;;;;119.53;114.05;;;;;;;25.77;44.02;101553.53;5033137;28;20067;-74
2023/09/08 06:13:37;;;;;;;119.68;114.13;;;;;;;25.75;43.86;101564.91;5041192;28;20029;-74
2023/09/08 06:16:03;;;;;;;120.57;115.15;;;;;;;25.73;43.54;101563.63;5042119;28;20068;-72
2023/09/08 06:18:32;;;;;;;118.75;113.30;;;;;;;25.71;43.78;101566.72;5043973;28;20120;-74
2023/09/08 06:20:57;;;;;;;121.05;115.53;;;;;;;25.70;43.94;101562.31;5034944;28;20040;-74
2023/09/08 06:23:23;;;;;;;118.45;113.03;;;;;;;25.67;44.00;101558.25;5036155;28;20444;-72
2023/09/08 06:25:49;;;;;;;122.78;117.22;;;;;;;25.66;43.89;101561.34;5042917;28;20066;-75
2023/09/08 06:28:15;;;;;;;121.95;116.40;;;;;;;25.65;43.94;101560.56;5044420;28;20033;-74
2023/09/08 06:30:41;;;;;;;115.00;109.55;;;;;;;25.63;43.90;101554.53;5035459;28;20481;-74
2023/09/08 06:33:10;;;;;;;118.72;113.22;;;;;;;25.63;43.69;101564.78;5041419;28;20060;-75
2023/09/08 06:35:35;;;;;;;119.32;113.82;;;;;;;25.60;43.87;101568.16;5037980;28;20098;-75
2023/09/08 06:38:01;;;;;;;123.18;117.53;;;;;;;25.58;43.75;101565.75;5046643;28;20389;-74
2023/09/08 06:40:29;;;;;;;120.47;114.95;;;;;;;25.58;43.83;101571.28;5035297;28;20053;-74
2023/09/08 06:42:55;;;;;;;117.07;111.70;;;;;;;25.56;43.85;101569.97;5043036;28;20080;-72
2023/09/08 06:45:20;;;;;;;121.18;115.32;;;;;;;25.54;43.76;101567.53;5042594;28;20041;-73
2023/09/08 06:47:46;;;;;;;118.53;113.10;;;;;;;25.54;43.60;101572.25;5047646;28;20080;-74
2023/09/08 06:50:11;;;;;;;122.38;116.68;;;;;;;25.52;44.03;101577.28;5046685;28;20037;-74
2023/09/08 06:52:36;;;;;;;118.10;112.70;;;;;;;25.52;43.96;101585.59;5049029;28;20040;-74
2023/09/08 06:55:02;;;;;;;120.07;114.57;;;;;;;25.51;43.71;101578.44;5046110;28;20037;-74
2023/09/08 06:57:28;;;;;;;121.18;115.22;;;;;;;25.51;43.92;101575.66;5049680;28;20554;-76
2023/09/08 06:59:53;;;;;;;120.60;114.80;;;;;;;25.48;44.15;101575.19;5047488;28;20552;-75
2023/09/08 07:02:18;;;;;;;119.85;114.15;;;;;;;25.49;43.74;101578.75;5041763;28;20053;-72
2023/09/08 07:04:44;;;;;;;122.07;116.13;;;;;;;25.48;44.02;101577.13;5046086;28;20038;-74
2023/09/08 07:07:10;;;;;;;118.47;112.97;;;;;;;25.47;43.68;101578.25;5038241;28;20454;-74
2023/09/08 07:09:36;;;;;;;120.38;114.57;;;;;;;25.48;43.91;101579.91;5038947;28;20033;-73
2023/09/08 07:12:03;;;;;;;117.35;111.82;;;;;;;25.48;43.77;101583.47;5036414;28;20072;-72
2023/09/08 07:14:29;;;;;;;114.60;109.35;;;;;;;25.48;43.85;101580.72;5042977;28;20036;-74
2023/09/08 07:16:54;;;;;;;113.88;108.63;;;;;;;25.48;43.90;101579.91;5050989;28;20037;-74
2023/09/08 07:19:19;;;;;;;114.25;109.03;;;;;;;25.50;44.15;101585.09;5042014;28;20376;-73
2023/09/08 07:21:45;;;;;;;118.18;112.68;;;;;;;25.49;44.03;101581.50;5034847;28;20072;-73
2023/09/08 07:24:10;;;;;;;117.95;112.35;;;;;;;25.50;44.08;101582.31;5037373;28;20469;-72
2023/09/08 07:26:36;;;;;;;116.70;111.30;;;;;;;25.50;43.72;101588.66;5035879;28;20034;-74
2023/09/08 07:29:01;;;;;;;118.97;113.47;;;;;;;25.50;44.14;101591.44;5051384;28;20041;-73
2023/09/08 07:31:26;;;;;;;118.95;113.35;;;;;;;25.51;43.74;101583.97;5034317;28;20083;-73
2023/09/08 07:33:52;;;;;;;118.15;112.75;;;;;;;25.52;44.03;101588.34;5049011;28;20040;-74
2023/09/08 07:36:17;;;;;;;117.38;111.90;;;;;;;25.53;44.11;101584.44;5050374;28;20540;-74
2023/09/08 07:38:43;;;;;;;119.43;113.72;;;;;;;25.52;43.97;101591.94;5045333;28;20185;-75
2023/09/08 07:41:08;;;;;;;116.70;111.40;;;;;;;25.53;44.06;101592.72;5047832;28;20079;-73
2023/09/08 07:43:33;;;;;;;115.40;110.00;;;;;;;25.53;44.05;101584.44;5035715;28;20034;-74
2023/09/08 07:45:59;;;;;;;115.00;109.80;;;;;;;25.54;43.87;101578.59;5044281;28;20033;-72
2023/09/08 07:48:24;;;;;;;119.90;114.05;;;;;;;25.54;43.86;101580.53;5035461;28;20029;-73
2023/09/08 07:50:50;;;;;;;117.13;111.65;;;;;;;25.55;44.20;101585.78;5052236;28;20108;-73
2023/09/08 07:53:15;;;;;;;117.70;112.20;;;;;;;25.55;44.02;101583.00;5052949;28;20037;-76
2023/09/08 07:55:41;;;;;;;121.00;115.40;;;;;;;25.57;44.25;101577.94;5060071;28;20041;-74
2023/09/08 07:58:08;;;;;;;118.72;113.28;;;;;;;25.59;44.18;101580.38;5044771;28;20042;-75
2023/09/08 08:00:33;;;;;;;122.47;116.18;;;;;;;25.60;44.29;101582.00;5045459;28;20048;-72
2023/09/08 08:02:59;;;;;;;121.47;115.78;;;;;;;25.62;44.13;101571.44;5034975;28;20425;-74
2023/09/08 08:05:25;;;;;;;121.30;115.50;;;;;;;25.64;44.46;101577.47;5059460;28;20071;-74
2023/09/08 08:07:51;;;;;;;125.28;119.22;;;;;;;25.64;44.70;101575.50;5046850;28;20120;-73
2023/09/08 08:10:17;;;;;;;118.97;113.50;;;;;;;25.68;44.55;101570.16;5033338;28;20439;-74
2023/09/08 08:12:43;;;;;;;119.22;113.47;;;;;;;25.72;44.47;101571.09;5034477;28;20090;-74
2023/09/08 08:15:12;;;;;;;123.15;117.45;;;;;;;25.79;44.48;101576.16;5043349;28;20122;-74
2023/09/08 08:17:39;;;;;;;126.38;119.35;;;;;;;25.83;44.70;101568.81;5033107;28;20037;-75
2023/09/08 08:20:06;;;;;;;119.40;113.68;;;;;;;25.86;44.84;101579.28;5033064;28;20466;-74
2023/09/08 08:22:33;;;;;;;126.10;119.97;;;;;;;25.91;45.03;101581.91;5043834;28;20124;-73
2023/09/08 08:24:59;;;;;;;125.57;119.38;;;;;;;25.95;45.32;101588.38;5050037;28;20043;-74
2023/09/08 08:27:24;;;;;;;120.25;114.43;;;;;;;26.00;45.56;101590.97;5048908;28;20037;-74
2023/09/08 08:29:50;;;;;;;120.55;114.93;;;;;;;26.03;45.47;101576.50;5047019;28;20535;-75
2023/09/08 08:32:16;;;;;;;118.93;113.38;;;;;;;26.07;45.41;101576.66;5044626;28;20458;-75
2023/09/08 08:34:41;;;;;;;122.20;116.30;;;;;;;26.09;45.46;101577.97;5032985;28;20044;-73
2023/09/08 08:37:07;;;;;;;122.53;116.95;;;;;;;26.14;45.59;101581.72;5048151;28;20251;-74
2023/09/08 08:39:32;;;;;;;121.25;115.63;;;;;;;26.17;45.82;101587.41;5044817;28;20052;-73
2023/09/08 08:41:58;;;;;;;122.53;116.63;;;;;;;26.22;45.62;101586.41;5045995;28;20108;-73
2023/09/08 08:44:23;;;;;;;124.00;118.20;;;;;;;26.27;45.98;101586.25;5044916;28;20486;-74
2023/09/08 08:46:50;;;;;;;122.60;117.20;;;;;;;26.31;45.75;101588.03;5053115;28;20032;-74
2023/09/08 08:49:16;;;;;;;125.93;119.32;;;;;;;26.35;45.99;101588.16;5040722;28;20549;-75
2023/09/08 08:51:45;;;;;;;131.88;125.30;;;;;;;26.40;45.84;101579.69;5035573;28;20104;-74
2023/09/08 08:54:13;;;;;;;124.10;118.10;;;;;;;26.46;46.27;101580.31;5048490;28;20158;-74
2023/09/08 08:56:39;;;;;;;121.87;116.13;;;;;;;26.52;46.31;101581.78;5049982;28;20112;-74
2023/09/08 08:59:05;;;;;;;129.18;123.03;;;;;;;26.59;46.06;101581.31;5032359;28;20827;-74
2023/09/08 09:01:38;;;;;;;126.88;121.07;;;;;;;26.66;46.42;101573.25;5064843;28;20407;-74
2023/09/08 09:04:06;;;;;;;128.02;122.22;;;;;;;26.73;45.96;101568.03;5062120;28;20041;-74
2023/09/08 09:06:32;;;;;;;131.25;125.10;;;;;;;26.80;45.88;101573.06;5064862;28;20032;-74
2023/09/08 09:08:59;;;;;;;130.35;124.43;;;;;;;26.85;46.29;101576.47;5048869;28;20045;-75
2023/09/08 09:11:25;;;;;;;134.48;127.88;;;;;;;26.90;46.01;101572.69;5054207;28;20064;-74
2023/09/08 09:13:50;;;;;;;132.93;126.53;;;;;;;26.94;46.48;101571.69;5054049;28;20069;-74
2023/09/08 09:16:16;;;;;;;132.52;126.45;;;;;;;26.99;46.17;101579.00;5057951;28;20121;-74
2023/09/08 09:18:58;;;;;;;136.70;130.02;;;;;;;27.03;46.62;101574.41;5067507;28;20028;-74
2023/09/08 09:21:24;;;;;;;129.35;123.25;;;;;;;27.09;46.39;101573.09;5060967;28;20045;-73
2023/09/08 09:23:50;;;;;;;135.50;129.13;;;;;;;27.14;46.59;101577.59;5059840;28;20086;-74
2023/09/08 09:26:26;;;;;;;134.00;127.70;;;;;;;27.18;46.45;101573.06;5058358;28;20483;-74
2023/09/08 09:28:53;;;;;;;132.15;126.22;;;;;;;27.23;46.60;101574.81;5054955;28;20041;-74
2023/09/08 09:31:23;;;;;;;130.95;124.93;;;;;;;27.27;46.63;101579.38;5064886;28;20075;-72
2023/09/08 09:34:01;;;;;;;142.35;135.35;;;;;;;27.31;46.74;101585.03;5058785;28;20516;-76
2023/09/08 09:36:26;;;;;;;138.40;131.60;;;;;;;27.36;46.69;101588.41;5055502;28;20151;-74
2023/09/08 09:38:51;;;;;;;138.63;131.80;;;;;;;27.41;46.82;101581.88;5061541;28;20468;-74
2023/09/08 09:41:17;;;;;;;139.88;133.20;;;;;;;27.45;46.63;101580.06;5065664;28;20032;-74
2023/09/08 09:43:44;;;;;;;137.38;131.15;;;;;;;27.50;47.02;101585.41;5055333;28;20037;-72
2023/09/08 09:46:09;;;;;;;133.43;127.03;;;;;;;27.55;46.63;101576.06;5056905;28;20033;-76
2023/09/08 09:48:35;;;;;;;136.68;130.18;;;;;;;27.59;47.20;101583.38;5055912;28;20108;-74
2023/09/08 09:51:16;;;;;;;136.52;130.13;;;;;;;27.64;46.94;101579.56;5063986;28;20028;-75
2023/09/08 09:53:42;;;;;;;136.65;130.35;;;;;;;27.68;46.99;101572.19;5061038;28;20115;-74
2023/09/08 09:56:09;;;;;;;139.30;132.32;;;;;;;27.72;47.02;101575.94;5067594;28;20039;-74
2023/09/08 09:58:37;;;;;;;141.40;134.88;;;;;;;27.77;46.87;101583.22;5056571;28;20115;-74
2023/09/08 10:01:03;;;;;;;141.10;134.55;;;;;;;27.82;47.04;101583.03;5051222;28;20061;-74
2023/09/08 10:03:30;;;;;;;145.98;139.02;;;;;;;27.87;47.09;101585.63;5048464;28;20064;-74
2023/09/08 10:05:56;;;;;;;140.88;134.00;;;;;;;27.90;47.12;101584.94;5066415;28;20029;-73
2023/09/08 10:08:22;;;;;;;141.45;134.75;;;;;;;27.94;47.19;101585.88;5048465;28;20048;-74
2023/09/08 10:10:50;;;;;;;141.23;134.77;;;;;;;27.97;47.36;101582.44;5049456;28;20044;-74
2023/09/08 10:13:23;;;;;;;146.73;139.43;;;;;;;28.02;47.34;101581.41;5035588;28;20095;-74
2023/09/08 10:15:50;;;;;;;136.10;129.95;;;;;;;28.08;47.44;101580.03;5027348;28;20030;-74
2023/09/08 10:18:19;;;;;;;141.52;134.95;;;;;;;28.12;47.34;101574.59;5036235;28;20033;-73
2023/09/08 10:20:46;;;;;;;141.18;134.27;;;;;;;28.16;47.34;101581.91;5036905;28;20465;-73
2023/09/08 10:23:31;;;;;;;149.32;142.32;;;;;;;28.20;47.09;101576.50;5047264;28;20551;-73
2023/09/08 10:26:03;;;;;;;144.40;137.52;;;;;;;28.24;47.25;101566.31;5053544;28;20040;-72
2023/09/08 10:28:29;;;;;;;143.57;136.52;;;;;;;28.27;47.22;101571.19;5038450;28;20033;-73
2023/09/08 10:30:55;;;;;;;145.00;138.23;;;;;;;28.31;47.31;101569.34;5047278;28;20063;-73
2023/09/08 10:33:23;;;;;;;146.95;139.70;;;;;;;28.36;47.43;101571.91;5033934;28;20048;-73
2023/09/08 10:35:49;;;;;;;147.23;140.30;;;;;;;28.40;47.41;101577.56;5054483;28;20158;-73
2023/09/08 10:38:24;;;;;;;148.88;141.73;;;;;;;28.44;47.55;101570.19;5050336;28;20128;-72
2023/09/08 10:40:50;;;;;;;152.13;145.00;;;;;;;28.46;47.24;101573.47;5045026;28;20088;-72
2023/09/08 10:43:15;;;;;;;150.35;143.43;;;;;;;28.51;47.35;101572.44;5043038;28;20033;-73
2023/09/08 10:45:44;;;;;;;148.35;141.45;;;;;;;28.55;47.49;101570.56;5036747;28;20092;-72
2023/09/08 10:48:10;;;;;;;152.27;145.48;;;;;;;28.60;47.40;101575.91;5050401;28;20084;-72
2023/09/08 10:50:40;;;;;;;151.50;144.50;;;;;;;28.64;47.29;101568.50;5049137;28;20041;-73